Terminal Aerodrome Forecast
Issued by NWS

Home | Current Version | Previous Version | Text Only | Print | Product List | Glossary On
Versions: 1 2 3 4 5 6 7 8 9 10 11 12 13 14 15 16 17 18 19 20 21 22
000
FTUS45 KRIW 232300
TAFPNA
TAF
KPNA 232320Z 2400/2424 30017G25KT P6SM FEW020 SCT050
     FM240200 30010KT P6SM SCT040 BKN060
     FM240600 30014KT 4SM -SN SCT015 BKN035
     FM241800 32016G23KT P6SM VCSH SCT025 BKN060
      AMD LTD TO CLD VIS AND WIND=

USA.gov is the U.S. government's official web portal to all federal, state and local government web resources and services.